Terminal Aerodrome Forecast
Issued by NWS Upton, NY

Home | Current Version | Previous Version | Text Only | Print | Product List | Glossary On
Versions: 1 2 3 4 5 6 7 8 9 10 11 12 13 14 15 16 17 18 19 20 21 22 23 24 25 26 27 28
000
FTUS41 KOKX 260500
TAFJFK
TAF
KJFK 260530Z 2606/2712 22008KT P6SM FEW070 BKN250
     FM261500 21011KT P6SM FEW040 BKN150
     FM261900 18016KT P6SM SCT040 OVC120
     FM270100 20010KT P6SM BKN040 OVC080 PROB30 2707/2712 5SM SHRA
      BR=

USA.gov is the U.S. government's official web portal to all federal, state and local government web resources and services.